BAW786 EDDF-EGKK
Flight info
| Callsign | BAW786 |
|---|---|
| Flight time | 1h 15m |
| Altitude | 36000 |
| Route | OBOKA5G/25C OBOKA Z29 TORNU DCT BREDA DCT VICOT DCT GALSO Q63 ARREK Y4 TEBRA DCT ABTUM DCT ARNUN DCT LARCK |
| Aircraft | A35K/H-SDE2E3GHIJ3J4J5LM1ORWXY/LB1D1 |
Departure
| Time | 2026-05-07 18:39 |
|---|---|
| Airport | Frankfurt Main Airport (EDDF) |
Arrival
| Time | 2026-05-07 19:54 |
|---|---|
| Airport | London Gatwick Airport (EGKK) |
| Time | Latitude | Longitude | Altitude | Speed | Heading |
|---|---|---|---|---|---|
| 2026-05-07 17:54 | 50.04653 | 8.57039 | 366 ft | 0 kts | 91° |
| 2026-05-07 18:25 | 50.04655 | 8.57019 | 373 ft | 1 kts | 107° |
| 2026-05-07 18:25 | 50.04660 | 8.56998 | 372 ft | 2 kts | 128° |
| 2026-05-07 18:25 | 50.04673 | 8.56981 | 372 ft | 2 kts | 155° |
| 2026-05-07 18:26 | 50.04688 | 8.56974 | 369 ft | 2 kts | 177° |
| 2026-05-07 18:26 | 50.04704 | 8.56976 | 367 ft | 1 kts | 197° |
| 2026-05-07 18:26 | 50.04707 | 8.56977 | 367 ft | 0 kts | 201° |
| 2026-05-07 18:29 | 50.04703 | 8.56974 | 367 ft | 2 kts | 204° |
| 2026-05-07 18:29 | 50.04680 | 8.56957 | 373 ft | 5 kts | 206° |
| 2026-05-07 18:29 | 50.04636 | 8.56925 | 368 ft | 9 kts | 203° |
| 2026-05-07 18:30 | 50.04569 | 8.56894 | 370 ft | 12 kts | 192° |
| 2026-05-07 18:30 | 50.04475 | 8.56849 | 372 ft | 15 kts | 217° |
| 2026-05-07 18:30 | 50.04422 | 8.56697 | 369 ft | 17 kts | 249° |
| 2026-05-07 18:30 | 50.04375 | 8.56498 | 368 ft | 22 kts | 250° |
| 2026-05-07 18:31 | 50.04317 | 8.56255 | 364 ft | 26 kts | 249° |
| 2026-05-07 18:31 | 50.04248 | 8.55971 | 368 ft | 29 kts | 249° |
| 2026-05-07 18:31 | 50.04194 | 8.55747 | 367 ft | 0 kts | 249° |
| 2026-05-07 18:31 | 50.04191 | 8.55734 | 366 ft | 3 kts | 249° |
| 2026-05-07 18:32 | 50.04180 | 8.55689 | 366 ft | 7 kts | 249° |
| 2026-05-07 18:32 | 50.04176 | 8.55671 | 367 ft | 0 kts | 250° |
| 2026-05-07 18:32 | 50.04171 | 8.55651 | 365 ft | 4 kts | 250° |
| 2026-05-07 18:32 | 50.04157 | 8.55591 | 368 ft | 9 kts | 249° |
| 2026-05-07 18:33 | 50.04125 | 8.55467 | 367 ft | 14 kts | 239° |
| 2026-05-07 18:33 | 50.04039 | 8.55438 | 365 ft | 14 kts | 166° |
| 2026-05-07 18:33 | 50.03941 | 8.55438 | 366 ft | 16 kts | 217° |
| 2026-05-07 18:33 | 50.03892 | 8.55290 | 365 ft | 0 kts | 249° |
| 2026-05-07 18:34 | 50.03891 | 8.55289 | 365 ft | 1 kts | 249° |
| 2026-05-07 18:34 | 50.03879 | 8.55238 | 366 ft | 12 kts | 250° |
| 2026-05-07 18:34 | 50.03845 | 8.55098 | 360 ft | 16 kts | 250° |
| 2026-05-07 18:34 | 50.03800 | 8.54908 | 359 ft | 21 kts | 250° |
| 2026-05-07 18:35 | 50.03748 | 8.54690 | 363 ft | 22 kts | 249° |
| 2026-05-07 18:35 | 50.03694 | 8.54467 | 360 ft | 19 kts | 250° |
| 2026-05-07 18:35 | 50.03688 | 8.54439 | 361 ft | 1 kts | 249° |
| 2026-05-07 18:35 | 50.03681 | 8.54413 | 363 ft | 4 kts | 249° |
| 2026-05-07 18:36 | 50.03663 | 8.54356 | 363 ft | 7 kts | 230° |
| 2026-05-07 18:36 | 50.03612 | 8.54324 | 361 ft | 9 kts | 183° |
| 2026-05-07 18:36 | 50.03594 | 8.54328 | 360 ft | 0 kts | 169° |
| 2026-05-07 18:37 | 50.03593 | 8.54328 | 361 ft | 1 kts | 169° |
| 2026-05-07 18:37 | 50.03568 | 8.54337 | 361 ft | 7 kts | 164° |
| 2026-05-07 18:37 | 50.03502 | 8.54382 | 363 ft | 10 kts | 137° |
| 2026-05-07 18:37 | 50.03497 | 8.54427 | 361 ft | 0 kts | 79° |
| 2026-05-07 18:38 | 50.03502 | 8.54463 | 358 ft | 16 kts | 75° |
| 2026-05-07 18:38 | 50.03621 | 8.54959 | 359 ft | 85 kts | 70° |
| 2026-05-07 18:39 | 50.03906 | 8.56153 | 364 ft | 148 kts | 69° |
| 2026-05-07 18:39 | 50.04297 | 8.57792 | 841 ft | 163 kts | 70° |
| 2026-05-07 18:39 | 50.04700 | 8.59450 | 1610 ft | 168 kts | 67° |
| 2026-05-07 18:39 | 50.05134 | 8.61283 | 2086 ft | 195 kts | 70° |
| 2026-05-07 18:40 | 50.05597 | 8.63402 | 2628 ft | 214 kts | 70° |
| 2026-05-07 18:40 | 50.06082 | 8.65630 | 3454 ft | 220 kts | 69° |
| 2026-05-07 18:40 | 50.06585 | 8.67915 | 4236 ft | 227 kts | 69° |
| 2026-05-07 18:40 | 50.07238 | 8.70172 | 4956 ft | 232 kts | 54° |
| 2026-05-07 18:41 | 50.08421 | 8.71897 | 5628 ft | 242 kts | 29° |
| 2026-05-07 18:41 | 50.10002 | 8.73084 | 6156 ft | 260 kts | 21° |
| 2026-05-07 18:41 | 50.11709 | 8.74174 | 6938 ft | 269 kts | 21° |
| 2026-05-07 18:41 | 50.13450 | 8.75298 | 7865 ft | 273 kts | 21° |
| 2026-05-07 18:42 | 50.15231 | 8.76472 | 8819 ft | 278 kts | 21° |
| 2026-05-07 18:42 | 50.17026 | 8.77671 | 9796 ft | 283 kts | 22° |
| 2026-05-07 18:42 | 50.18862 | 8.78907 | 10559 ft | 295 kts | 22° |
| 2026-05-07 18:42 | 50.20823 | 8.80229 | 10978 ft | 319 kts | 22° |
| 2026-05-07 18:43 | 50.22942 | 8.81615 | 11375 ft | 341 kts | 19° |
| 2026-05-07 18:43 | 50.25306 | 8.82463 | 11841 ft | 357 kts | 3° |
| 2026-05-07 18:43 | 50.27791 | 8.82143 | 12537 ft | 363 kts | 345° |
| 2026-05-07 18:43 | 50.30114 | 8.80622 | 12964 ft | 364 kts | 327° |
| 2026-05-07 18:44 | 50.32005 | 8.77997 | 13067 ft | 364 kts | 308° |
| 2026-05-07 18:44 | 50.33249 | 8.74570 | 13063 ft | 364 kts | 290° |
| 2026-05-07 18:44 | 50.33739 | 8.70692 | 13068 ft | 364 kts | 272° |
| 2026-05-07 18:44 | 50.33482 | 8.66760 | 13069 ft | 365 kts | 259° |
| 2026-05-07 18:45 | 50.33122 | 8.62822 | 13061 ft | 365 kts | 267° |
| 2026-05-07 18:45 | 50.33377 | 8.58936 | 13068 ft | 365 kts | 284° |
| 2026-05-07 18:45 | 50.34123 | 8.55088 | 13062 ft | 365 kts | 288° |
| 2026-05-07 18:45 | 50.34949 | 8.51314 | 13064 ft | 366 kts | 289° |
| 2026-05-07 18:46 | 50.35776 | 8.47555 | 13067 ft | 366 kts | 288° |
| 2026-05-07 18:46 | 50.36600 | 8.43786 | 13072 ft | 366 kts | 288° |
| 2026-05-07 18:46 | 50.37313 | 8.40011 | 13070 ft | 366 kts | 282° |
| 2026-05-07 18:46 | 50.37584 | 8.36061 | 13069 ft | 366 kts | 269° |
| 2026-05-07 18:47 | 50.37268 | 8.32114 | 13068 ft | 366 kts | 257° |
| 2026-05-07 18:47 | 50.36564 | 8.28285 | 13075 ft | 366 kts | 253° |
| 2026-05-07 18:47 | 50.35783 | 8.24468 | 13424 ft | 370 kts | 252° |
| 2026-05-07 18:47 | 50.35024 | 8.20619 | 14289 ft | 371 kts | 256° |
| 2026-05-07 18:48 | 50.34623 | 8.16632 | 15139 ft | 373 kts | 268° |
| 2026-05-07 18:48 | 50.34879 | 8.12579 | 15944 ft | 377 kts | 284° |
| 2026-05-07 18:48 | 50.35948 | 8.08829 | 16733 ft | 382 kts | 303° |
| 2026-05-07 18:48 | 50.37733 | 8.05726 | 17514 ft | 389 kts | 321° |
| 2026-05-07 18:49 | 50.40012 | 8.03392 | 18319 ft | 394 kts | 327° |
| 2026-05-07 18:49 | 50.42348 | 8.01101 | 19037 ft | 398 kts | 326° |
| 2026-05-07 18:49 | 50.44654 | 7.98682 | 19776 ft | 402 kts | 324° |
| 2026-05-07 18:49 | 50.46941 | 7.96106 | 20519 ft | 406 kts | 322° |
| 2026-05-07 18:50 | 50.49179 | 7.93389 | 21247 ft | 410 kts | 320° |
| 2026-05-07 18:50 | 50.51383 | 7.90501 | 21985 ft | 414 kts | 317° |
| 2026-05-07 18:50 | 50.53469 | 7.87368 | 22681 ft | 417 kts | 310° |
| 2026-05-07 18:50 | 50.55240 | 7.83740 | 23426 ft | 420 kts | 302° |
| 2026-05-07 18:51 | 50.56835 | 7.79864 | 23897 ft | 422 kts | 301° |
| 2026-05-07 18:51 | 50.58385 | 7.75934 | 24041 ft | 423 kts | 300° |
| 2026-05-07 18:51 | 50.59920 | 7.71982 | 24055 ft | 425 kts | 300° |
| 2026-05-07 18:51 | 50.61456 | 7.68002 | 24060 ft | 425 kts | 300° |
| 2026-05-07 18:52 | 50.62989 | 7.64015 | 24057 ft | 426 kts | 300° |
| 2026-05-07 18:52 | 50.64520 | 7.60020 | 24059 ft | 426 kts | 300° |
| 2026-05-07 18:52 | 50.66049 | 7.56021 | 24061 ft | 426 kts | 300° |
| 2026-05-07 18:52 | 50.67575 | 7.52024 | 24064 ft | 426 kts | 300° |
| 2026-05-07 18:53 | 50.69103 | 7.48014 | 24102 ft | 427 kts | 300° |
| 2026-05-07 18:53 | 50.70633 | 7.43990 | 24458 ft | 430 kts | 300° |
| 2026-05-07 18:53 | 50.72172 | 7.39937 | 25129 ft | 432 kts | 300° |
| 2026-05-07 18:53 | 50.73715 | 7.35865 | 25803 ft | 434 kts | 300° |
| 2026-05-07 18:54 | 50.75266 | 7.31754 | 26414 ft | 437 kts | 299° |
| 2026-05-07 18:54 | 50.76737 | 7.27523 | 27044 ft | 440 kts | 296° |
| 2026-05-07 18:54 | 50.78131 | 7.23197 | 27650 ft | 444 kts | 295° |
| 2026-05-07 18:54 | 50.79489 | 7.18864 | 28243 ft | 447 kts | 295° |
| 2026-05-07 18:55 | 50.80872 | 7.14441 | 28818 ft | 451 kts | 295° |
| 2026-05-07 18:55 | 50.82279 | 7.09984 | 29395 ft | 455 kts | 296° |
| 2026-05-07 18:55 | 50.83707 | 7.05508 | 29938 ft | 458 kts | 296° |
| 2026-05-07 18:55 | 50.85159 | 7.00987 | 30418 ft | 462 kts | 296° |
| 2026-05-07 18:56 | 50.86623 | 6.96447 | 30861 ft | 465 kts | 296° |
| 2026-05-07 18:56 | 50.88102 | 6.91876 | 31258 ft | 468 kts | 296° |
| 2026-05-07 18:56 | 50.89589 | 6.87267 | 31673 ft | 471 kts | 296° |
| 2026-05-07 18:56 | 50.91082 | 6.82617 | 32053 ft | 475 kts | 296° |
| 2026-05-07 18:57 | 50.92579 | 6.77944 | 32446 ft | 477 kts | 295° |
| 2026-05-07 18:57 | 50.94079 | 6.73253 | 32998 ft | 476 kts | 295° |
| 2026-05-07 18:57 | 50.95570 | 6.68581 | 33567 ft | 474 kts | 295° |
| 2026-05-07 18:57 | 50.97055 | 6.63919 | 34079 ft | 474 kts | 295° |
| 2026-05-07 18:58 | 50.98539 | 6.59251 | 34503 ft | 473 kts | 295° |
| 2026-05-07 18:58 | 51.00019 | 6.54589 | 34902 ft | 473 kts | 295° |
| 2026-05-07 18:58 | 51.01494 | 6.49931 | 35262 ft | 473 kts | 295° |
| 2026-05-07 18:58 | 51.02970 | 6.45263 | 35627 ft | 473 kts | 295° |
| 2026-05-07 18:59 | 51.04451 | 6.40572 | 35969 ft | 475 kts | 295° |
| 2026-05-07 18:59 | 51.05932 | 6.35868 | 36071 ft | 476 kts | 295° |
| 2026-05-07 18:59 | 51.07413 | 6.31158 | 36073 ft | 476 kts | 295° |
| 2026-05-07 19:00 | 51.10357 | 6.21737 | 36058 ft | 476 kts | 294° |
| 2026-05-07 19:00 | 51.12814 | 6.11973 | 36075 ft | 475 kts | 288° |
| 2026-05-07 19:01 | 51.15012 | 6.02054 | 36073 ft | 475 kts | 287° |
| 2026-05-07 19:01 | 51.17159 | 5.92104 | 36074 ft | 475 kts | 287° |
| 2026-05-07 19:02 | 51.19310 | 5.82158 | 36077 ft | 475 kts | 287° |
| 2026-05-07 19:02 | 51.21465 | 5.72215 | 36069 ft | 475 kts | 287° |
| 2026-05-07 19:03 | 51.23616 | 5.62256 | 36079 ft | 475 kts | 287° |
| 2026-05-07 19:03 | 51.25760 | 5.52286 | 36084 ft | 475 kts | 287° |
| 2026-05-07 19:04 | 51.27530 | 5.44014 | 36078 ft | 475 kts | 287° |
| 2026-05-07 19:04 | 51.29659 | 5.34016 | 36077 ft | 475 kts | 287° |
| 2026-05-07 19:05 | 51.31806 | 5.23874 | 36079 ft | 488 kts | 287° |
| 2026-05-07 19:05 | 51.33980 | 5.13564 | 36075 ft | 490 kts | 287° |
| 2026-05-07 19:06 | 51.36152 | 5.03216 | 36082 ft | 490 kts | 287° |
| 2026-05-07 19:06 | 51.39388 | 4.87693 | 36084 ft | 490 kts | 287° |
| 2026-05-07 19:07 | 51.41531 | 4.77345 | 36082 ft | 490 kts | 287° |
| 2026-05-07 19:07 | 51.43666 | 4.66980 | 36076 ft | 490 kts | 287° |
| 2026-05-07 19:08 | 51.45792 | 4.56603 | 36079 ft | 490 kts | 287° |
| 2026-05-07 19:08 | 51.47909 | 4.46220 | 36076 ft | 490 kts | 287° |
| 2026-05-07 19:09 | 51.50018 | 4.35820 | 36076 ft | 490 kts | 287° |
| 2026-05-07 19:09 | 51.52108 | 4.25458 | 35885 ft | 483 kts | 286° |
| 2026-05-07 19:10 | 51.53133 | 4.20362 | 35521 ft | 477 kts | 286° |
| 2026-05-07 19:10 | 51.54144 | 4.15321 | 35171 ft | 473 kts | 286° |
| 2026-05-07 19:10 | 51.55150 | 4.10286 | 34835 ft | 473 kts | 286° |
| 2026-05-07 19:10 | 51.56154 | 4.05245 | 34506 ft | 473 kts | 286° |
| 2026-05-07 19:11 | 51.57154 | 4.00212 | 34181 ft | 473 kts | 286° |
| 2026-05-07 19:11 | 51.58150 | 3.95185 | 33813 ft | 472 kts | 286° |
| 2026-05-07 19:11 | 51.59136 | 3.90204 | 33430 ft | 472 kts | 286° |
| 2026-05-07 19:11 | 51.60139 | 3.85119 | 33046 ft | 473 kts | 286° |
| 2026-05-07 19:12 | 51.61131 | 3.80076 | 32677 ft | 473 kts | 286° |
| 2026-05-07 19:12 | 51.62123 | 3.75024 | 32307 ft | 474 kts | 286° |
| 2026-05-07 19:12 | 51.63113 | 3.69966 | 31943 ft | 474 kts | 286° |
| 2026-05-07 19:12 | 51.64101 | 3.64903 | 31581 ft | 475 kts | 286° |
| 2026-05-07 19:13 | 51.65077 | 3.59891 | 31231 ft | 475 kts | 286° |
| 2026-05-07 19:13 | 51.66063 | 3.54816 | 30881 ft | 476 kts | 286° |
| 2026-05-07 19:13 | 51.67049 | 3.49726 | 30536 ft | 476 kts | 286° |
| 2026-05-07 19:13 | 51.68035 | 3.44623 | 30192 ft | 477 kts | 286° |
| 2026-05-07 19:14 | 51.69019 | 3.39512 | 29790 ft | 477 kts | 286° |
| 2026-05-07 19:14 | 51.70001 | 3.34404 | 29393 ft | 476 kts | 286° |
| 2026-05-07 19:14 | 51.70975 | 3.29322 | 28991 ft | 474 kts | 285° |
| 2026-05-07 19:14 | 51.71922 | 3.24250 | 28600 ft | 471 kts | 284° |
| 2026-05-07 19:15 | 51.72574 | 3.19095 | 28217 ft | 467 kts | 276° |
| 2026-05-07 19:15 | 51.72784 | 3.13900 | 27835 ft | 463 kts | 269° |
| 2026-05-07 19:15 | 51.72568 | 3.08733 | 27460 ft | 460 kts | 263° |
| 2026-05-07 19:15 | 51.72195 | 3.03615 | 27083 ft | 458 kts | 262° |
| 2026-05-07 19:16 | 51.71760 | 2.98544 | 26718 ft | 456 kts | 261° |
| 2026-05-07 19:16 | 51.71299 | 2.93498 | 26355 ft | 454 kts | 261° |
| 2026-05-07 19:16 | 51.70834 | 2.88474 | 25998 ft | 451 kts | 261° |
| 2026-05-07 19:16 | 51.70376 | 2.83489 | 25645 ft | 449 kts | 261° |
| 2026-05-07 19:17 | 51.69924 | 2.78511 | 25299 ft | 447 kts | 261° |
| 2026-05-07 19:17 | 51.69479 | 2.73569 | 25114 ft | 446 kts | 261° |
| 2026-05-07 19:17 | 51.69037 | 2.68621 | 25077 ft | 445 kts | 261° |
| 2026-05-07 19:17 | 51.68601 | 2.63696 | 25077 ft | 444 kts | 261° |
| 2026-05-07 19:18 | 51.68164 | 2.58770 | 24944 ft | 443 kts | 261° |
| 2026-05-07 19:18 | 51.67726 | 2.53859 | 24540 ft | 442 kts | 261° |
| 2026-05-07 19:18 | 51.67287 | 2.48964 | 24113 ft | 441 kts | 261° |
| 2026-05-07 19:18 | 51.66848 | 2.44098 | 23696 ft | 438 kts | 261° |
| 2026-05-07 19:19 | 51.66409 | 2.39264 | 23191 ft | 432 kts | 261° |
| 2026-05-07 19:19 | 51.65977 | 2.34522 | 22697 ft | 425 kts | 261° |
| 2026-05-07 19:19 | 51.65549 | 2.29856 | 22201 ft | 417 kts | 261° |
| 2026-05-07 19:19 | 51.65128 | 2.25278 | 21724 ft | 410 kts | 261° |
| 2026-05-07 19:20 | 51.64712 | 2.20777 | 21248 ft | 403 kts | 261° |
| 2026-05-07 19:20 | 51.64300 | 2.16345 | 20784 ft | 397 kts | 261° |
| 2026-05-07 19:20 | 51.63894 | 2.11983 | 20333 ft | 391 kts | 261° |
| 2026-05-07 19:20 | 51.63491 | 2.07687 | 19867 ft | 386 kts | 261° |
| 2026-05-07 19:21 | 51.63092 | 2.03437 | 19400 ft | 382 kts | 261° |
| 2026-05-07 19:21 | 51.62696 | 1.99239 | 18948 ft | 377 kts | 261° |
| 2026-05-07 19:21 | 51.62302 | 1.95087 | 18485 ft | 373 kts | 261° |
| 2026-05-07 19:21 | 51.61911 | 1.90975 | 17986 ft | 370 kts | 261° |
| 2026-05-07 19:22 | 51.61440 | 1.86934 | 17464 ft | 365 kts | 254° |
| 2026-05-07 19:22 | 51.60519 | 1.83162 | 16959 ft | 361 kts | 241° |
| 2026-05-07 19:22 | 51.59092 | 1.79877 | 16466 ft | 357 kts | 230° |
| 2026-05-07 19:22 | 51.57492 | 1.76849 | 15976 ft | 354 kts | 229° |
| 2026-05-07 19:23 | 51.55881 | 1.73890 | 15488 ft | 351 kts | 228° |
| 2026-05-07 19:23 | 51.54273 | 1.70957 | 15026 ft | 347 kts | 228° |
| 2026-05-07 19:23 | 51.52681 | 1.68061 | 14558 ft | 343 kts | 228° |
| 2026-05-07 19:23 | 51.51148 | 1.65277 | 14174 ft | 328 kts | 228° |
| 2026-05-07 19:24 | 51.49668 | 1.62512 | 14080 ft | 317 kts | 231° |
| 2026-05-07 19:24 | 51.48560 | 1.59588 | 14074 ft | 301 kts | 245° |
| 2026-05-07 19:24 | 51.47790 | 1.56488 | 14074 ft | 298 kts | 249° |
| 2026-05-07 19:24 | 51.47080 | 1.53363 | 14076 ft | 298 kts | 249° |
| 2026-05-07 19:25 | 51.46370 | 1.50238 | 14074 ft | 298 kts | 249° |
| 2026-05-07 19:25 | 51.45658 | 1.47124 | 14079 ft | 300 kts | 249° |
| 2026-05-07 19:25 | 51.44937 | 1.43986 | 14077 ft | 299 kts | 249° |
| 2026-05-07 19:25 | 51.44203 | 1.40878 | 14074 ft | 298 kts | 246° |
| 2026-05-07 19:26 | 51.43222 | 1.37971 | 14077 ft | 296 kts | 233° |
| 2026-05-07 19:26 | 51.41829 | 1.35553 | 14043 ft | 295 kts | 219° |
| 2026-05-07 19:26 | 51.40187 | 1.33524 | 13936 ft | 310 kts | 216° |
| 2026-05-07 19:26 | 51.38426 | 1.31472 | 13840 ft | 309 kts | 216° |
| 2026-05-07 19:27 | 51.36713 | 1.29472 | 13570 ft | 302 kts | 216° |
| 2026-05-07 19:27 | 51.35026 | 1.27494 | 13259 ft | 297 kts | 216° |
| 2026-05-07 19:27 | 51.33376 | 1.25553 | 13092 ft | 294 kts | 216° |
| 2026-05-07 19:27 | 51.31733 | 1.23618 | 12966 ft | 293 kts | 216° |
| 2026-05-07 19:28 | 51.30112 | 1.21709 | 12811 ft | 293 kts | 216° |
| 2026-05-07 19:28 | 51.28474 | 1.19780 | 12655 ft | 292 kts | 216° |
| 2026-05-07 19:28 | 51.26817 | 1.17830 | 12407 ft | 292 kts | 216° |
| 2026-05-07 19:28 | 51.25187 | 1.15912 | 12159 ft | 290 kts | 216° |
| 2026-05-07 19:29 | 51.23571 | 1.14014 | 12072 ft | 288 kts | 216° |
| 2026-05-07 19:29 | 51.21956 | 1.12117 | 12071 ft | 289 kts | 216° |
| 2026-05-07 19:29 | 51.20359 | 1.10243 | 12072 ft | 288 kts | 216° |
| 2026-05-07 19:29 | 51.18744 | 1.08350 | 12074 ft | 288 kts | 216° |
| 2026-05-07 19:30 | 51.17107 | 1.06433 | 12072 ft | 288 kts | 216° |
| 2026-05-07 19:30 | 51.15492 | 1.04543 | 12073 ft | 288 kts | 216° |
| 2026-05-07 19:30 | 51.13878 | 1.02656 | 12074 ft | 288 kts | 216° |
| 2026-05-07 19:30 | 51.12263 | 1.00769 | 12045 ft | 286 kts | 216° |
| 2026-05-07 19:31 | 51.10675 | 0.98917 | 11795 ft | 287 kts | 216° |
| 2026-05-07 19:31 | 51.09066 | 0.97040 | 11444 ft | 287 kts | 216° |
| 2026-05-07 19:31 | 51.07445 | 0.95136 | 11068 ft | 286 kts | 217° |
| 2026-05-07 19:31 | 51.06006 | 0.93035 | 10683 ft | 284 kts | 229° |
| 2026-05-07 19:32 | 51.04897 | 0.90446 | 10295 ft | 283 kts | 242° |
| 2026-05-07 19:32 | 51.04042 | 0.87647 | 10049 ft | 281 kts | 244° |
| 2026-05-07 19:32 | 51.03226 | 0.84851 | 9769 ft | 276 kts | 244° |
| 2026-05-07 19:32 | 51.02423 | 0.82120 | 9492 ft | 270 kts | 244° |
| 2026-05-07 19:33 | 51.01635 | 0.79460 | 9227 ft | 264 kts | 244° |
| 2026-05-07 19:33 | 51.00855 | 0.76839 | 8959 ft | 264 kts | 244° |
| 2026-05-07 19:33 | 51.00023 | 0.74061 | 8709 ft | 290 kts | 244° |
| 2026-05-07 19:33 | 50.99144 | 0.71127 | 8456 ft | 297 kts | 244° |
| 2026-05-07 19:34 | 50.98256 | 0.68165 | 8204 ft | 297 kts | 244° |
| 2026-05-07 19:34 | 50.97374 | 0.65208 | 8077 ft | 296 kts | 244° |
| 2026-05-07 19:34 | 50.96485 | 0.62261 | 8069 ft | 296 kts | 244° |
| 2026-05-07 19:34 | 50.95595 | 0.59315 | 8071 ft | 296 kts | 244° |
| 2026-05-07 19:35 | 50.94705 | 0.56371 | 8071 ft | 296 kts | 244° |
| 2026-05-07 19:35 | 50.93816 | 0.53431 | 7970 ft | 296 kts | 244° |
| 2026-05-07 19:35 | 50.92925 | 0.50488 | 7973 ft | 296 kts | 244° |
| 2026-05-07 19:35 | 50.92122 | 0.47525 | 7962 ft | 287 kts | 251° |
| 2026-05-07 19:36 | 50.91721 | 0.44513 | 7978 ft | 276 kts | 264° |
| 2026-05-07 19:36 | 50.91793 | 0.41491 | 7978 ft | 275 kts | 278° |
| 2026-05-07 19:36 | 50.92179 | 0.38515 | 7977 ft | 276 kts | 281° |
| 2026-05-07 19:36 | 50.92579 | 0.35554 | 7976 ft | 274 kts | 281° |
| 2026-05-07 19:37 | 50.92977 | 0.32599 | 7977 ft | 274 kts | 281° |
| 2026-05-07 19:37 | 50.93371 | 0.29668 | 7960 ft | 265 kts | 281° |
| 2026-05-07 19:37 | 50.93740 | 0.26930 | 7946 ft | 249 kts | 281° |
| 2026-05-07 19:37 | 50.94097 | 0.24283 | 7896 ft | 243 kts | 281° |
| 2026-05-07 19:38 | 50.94449 | 0.21672 | 7936 ft | 242 kts | 281° |
| 2026-05-07 19:38 | 50.94796 | 0.19080 | 7981 ft | 236 kts | 281° |
| 2026-05-07 19:38 | 50.95132 | 0.16579 | 7994 ft | 228 kts | 281° |
| 2026-05-07 19:38 | 50.95460 | 0.14124 | 8003 ft | 227 kts | 281° |
| 2026-05-07 19:39 | 50.95787 | 0.11674 | 8070 ft | 227 kts | 281° |
| 2026-05-07 19:39 | 50.96112 | 0.09229 | 8071 ft | 227 kts | 281° |
| 2026-05-07 19:39 | 50.96434 | 0.06803 | 8098 ft | 220 kts | 281° |
| 2026-05-07 19:39 | 50.96640 | 0.05246 | 8025 ft | 217 kts | 281° |
| 2026-05-07 19:40 | 50.97052 | 0.02128 | 7585 ft | 215 kts | 281° |
| 2026-05-07 19:40 | 50.97360 | -0.00199 | 7225 ft | 213 kts | 281° |
| 2026-05-07 19:40 | 50.97659 | -0.02469 | 7076 ft | 208 kts | 281° |
| 2026-05-07 19:40 | 50.97952 | -0.04722 | 7045 ft | 213 kts | 281° |
| 2026-05-07 19:41 | 50.98266 | -0.07160 | 7086 ft | 233 kts | 281° |
| 2026-05-07 19:41 | 50.98590 | -0.09717 | 7184 ft | 239 kts | 280° |
| 2026-05-07 19:41 | 50.98920 | -0.12304 | 7106 ft | 239 kts | 281° |
| 2026-05-07 19:41 | 50.99251 | -0.14890 | 7078 ft | 239 kts | 281° |
| 2026-05-07 19:42 | 50.99344 | -0.17480 | 7079 ft | 239 kts | 262° |
| 2026-05-07 19:42 | 50.99101 | -0.20123 | 7071 ft | 239 kts | 261° |
| 2026-05-07 19:42 | 50.98893 | -0.22745 | 7050 ft | 239 kts | 265° |
| 2026-05-07 19:42 | 50.98770 | -0.25358 | 7051 ft | 235 kts | 266° |
| 2026-05-07 19:43 | 50.98659 | -0.27910 | 6916 ft | 228 kts | 266° |
| 2026-05-07 19:43 | 50.98550 | -0.30405 | 6538 ft | 226 kts | 266° |
| 2026-05-07 19:43 | 50.98439 | -0.32852 | 6042 ft | 219 kts | 266° |
| 2026-05-07 19:43 | 50.98333 | -0.35199 | 5582 ft | 213 kts | 266° |
| 2026-05-07 19:44 | 50.98230 | -0.37539 | 5164 ft | 206 kts | 266° |
| 2026-05-07 19:44 | 50.98135 | -0.39752 | 4755 ft | 202 kts | 266° |
| 2026-05-07 19:44 | 50.98037 | -0.42047 | 4343 ft | 222 kts | 266° |
| 2026-05-07 19:44 | 50.97926 | -0.44606 | 3973 ft | 234 kts | 266° |
| 2026-05-07 19:45 | 50.97817 | -0.47171 | 3683 ft | 237 kts | 266° |
| 2026-05-07 19:45 | 50.97705 | -0.49809 | 3364 ft | 237 kts | 266° |
| 2026-05-07 19:45 | 50.97597 | -0.52378 | 3065 ft | 236 kts | 266° |
| 2026-05-07 19:45 | 50.97640 | -0.54977 | 2935 ft | 231 kts | 281° |
| 2026-05-07 19:46 | 50.98329 | -0.57082 | 2953 ft | 209 kts | 316° |
| 2026-05-07 19:46 | 50.99532 | -0.58119 | 2978 ft | 193 kts | 349° |
| 2026-05-07 19:46 | 51.00837 | -0.58370 | 2968 ft | 183 kts | 359° |
| 2026-05-07 19:46 | 51.02081 | -0.58471 | 2974 ft | 178 kts | 360° |
| 2026-05-07 19:47 | 51.03317 | -0.58531 | 2970 ft | 176 kts | 0° |
| 2026-05-07 19:47 | 51.04539 | -0.58579 | 2974 ft | 175 kts | 1° |
| 2026-05-07 19:47 | 51.05736 | -0.58514 | 2968 ft | 171 kts | 11° |
| 2026-05-07 19:47 | 51.06772 | -0.57686 | 2979 ft | 166 kts | 43° |
| 2026-05-07 19:48 | 51.07557 | -0.56337 | 2971 ft | 165 kts | 57° |
| 2026-05-07 19:48 | 51.08154 | -0.54802 | 2983 ft | 162 kts | 62° |
| 2026-05-07 19:48 | 51.08693 | -0.53232 | 2983 ft | 162 kts | 64° |
| 2026-05-07 19:48 | 51.09211 | -0.51642 | 2989 ft | 162 kts | 64° |
| 2026-05-07 19:49 | 51.09717 | -0.50048 | 2986 ft | 162 kts | 65° |
| 2026-05-07 19:49 | 51.10218 | -0.48445 | 2986 ft | 162 kts | 65° |
| 2026-05-07 19:49 | 51.10715 | -0.46840 | 2989 ft | 162 kts | 65° |
| 2026-05-07 19:49 | 51.11142 | -0.45239 | 2982 ft | 150 kts | 74° |
| 2026-05-07 19:50 | 51.11320 | -0.44191 | 2986 ft | 147 kts | 77° |
| 2026-05-07 19:50 | 51.11541 | -0.42644 | 2982 ft | 141 kts | 78° |
| 2026-05-07 19:50 | 51.11774 | -0.41131 | 2873 ft | 141 kts | 77° |
| 2026-05-07 19:50 | 51.11991 | -0.39594 | 2681 ft | 143 kts | 79° |
| 2026-05-07 19:51 | 51.12198 | -0.38076 | 2484 ft | 138 kts | 78° |
| 2026-05-07 19:51 | 51.12406 | -0.36588 | 2290 ft | 137 kts | 78° |
| 2026-05-07 19:51 | 51.12610 | -0.35113 | 2110 ft | 136 kts | 79° |
| 2026-05-07 19:51 | 51.12813 | -0.33635 | 1915 ft | 136 kts | 79° |
| 2026-05-07 19:52 | 51.13015 | -0.32164 | 1745 ft | 136 kts | 79° |
| 2026-05-07 19:52 | 51.13217 | -0.30692 | 1528 ft | 136 kts | 79° |
| 2026-05-07 19:52 | 51.13419 | -0.29225 | 1348 ft | 136 kts | 79° |
| 2026-05-07 19:52 | 51.13619 | -0.27759 | 1153 ft | 136 kts | 79° |
| 2026-05-07 19:53 | 51.13820 | -0.26295 | 962 ft | 134 kts | 79° |
| 2026-05-07 19:53 | 51.14021 | -0.24852 | 758 ft | 134 kts | 77° |
| 2026-05-07 19:53 | 51.14222 | -0.23409 | 539 ft | 133 kts | 79° |
| 2026-05-07 19:53 | 51.14394 | -0.21974 | 382 ft | 132 kts | 78° |
| 2026-05-07 19:54 | 51.14597 | -0.20548 | 237 ft | 131 kts | 76° |
| 2026-05-07 19:54 | 51.14774 | -0.19271 | 211 ft | 87 kts | 78° |
| 2026-05-07 19:54 | 51.14840 | -0.18796 | 217 ft | 0 kts | 76° |
| 2026-05-07 19:54 | 51.14848 | -0.18745 | 212 ft | 10 kts | 75° |
| 2026-05-07 19:55 | 51.14879 | -0.18636 | 219 ft | 12 kts | 58° |
| 2026-05-07 19:55 | 51.14937 | -0.18508 | 217 ft | 16 kts | 51° |
| 2026-05-07 19:55 | 51.14944 | -0.18495 | 218 ft | 0 kts | 52° |
| 2026-05-07 19:56 | 51.14952 | -0.18479 | 219 ft | 4 kts | 52° |
| 2026-05-07 19:57 | 51.14975 | -0.18432 | 215 ft | 7 kts | 51° |
| 2026-05-07 19:57 | 51.15022 | -0.18340 | 219 ft | 14 kts | 51° |
| 2026-05-07 19:57 | 51.15101 | -0.18209 | 220 ft | 18 kts | 22° |
| 2026-05-07 19:57 | 51.15239 | -0.18222 | 210 ft | 23 kts | 348° |
| 2026-05-07 19:58 | 51.15402 | -0.18278 | 218 ft | 25 kts | 347° |
| 2026-05-07 19:58 | 51.15573 | -0.18338 | 210 ft | 24 kts | 347° |
| 2026-05-07 19:58 | 51.15596 | -0.18346 | 215 ft | 0 kts | 347° |
| 2026-05-07 19:59 | 51.15597 | -0.18346 | 214 ft | 1 kts | 347° |
| 2026-05-07 19:59 | 51.15616 | -0.18353 | 217 ft | 5 kts | 347° |
| 2026-05-07 19:59 | 51.15666 | -0.18374 | 217 ft | 9 kts | 345° |
| 2026-05-07 19:59 | 51.15699 | -0.18386 | 216 ft | 0 kts | 348° |